Leland, Michigan
Current Conditions -  °F | °C
As of 5:53 PM on Tuesday 27 Jan 2015 (Local Time) from KTVC Reporting Station
Few Clouds Few Clouds  
Wind Chill: 14°   Ceiling: Unl
Heat Index: 23°   Visibility: 10mi
Dew Point:   Wind: 8mph
Humidity: 50%   Direction: 360°N
Pressure: 30.23"   Gusts: NA
Location:  45.02°N, 85.76°W
Report Text: KTVC 272253Z 36007KT 10SM FEW200 M05/M14 A3023 RMK AO2 SLP248 T10501139
Loading
Personal Weather Stations






























Interactive Weather Map New forecast layout! Learn more

10-Day Weather Forecast

Advertisements
Track Severe Weather on mobile